Time;durP1;ratioP1;P1;durP2;ratioP2;P2;SDS_P1;SDS_P2;PMS_P1;PMS_P2;Temp;Humidity;BMP_temperature;BMP_pressure;BME280_temperature;BME280_humidity;BME280_pressure;Samples;Min_cycle;Max_cycle;Signal;HPM_P1;HPM_P2
2022/10/19 00:01:14;;;;;;;;;17.33;15.67;;;;;;;;5067535;28;45434;-77
2022/10/19 00:03:40;;;;;;;;;18.00;16.00;;;;;;;;5084326;27;45773;-77
2022/10/19 00:06:10;;;;;;;;;17.00;12.33;;;;;;;;5082323;27;45800;-80
2022/10/19 00:08:35;;;;;;;;;19.00;15.67;;;;;;;;5077984;28;45418;-78
2022/10/19 00:11:01;;;;;;;;;16.67;15.33;;;;;;;;5081082;28;45277;-82
2022/10/19 00:13:26;;;;;;;;;21.67;19.33;;;;;;;;5086993;27;45511;-83
2022/10/19 00:15:57;;;;;;;;;21.67;19.67;;;;;;;;5085452;27;45912;-79
2022/10/19 00:18:23;;;;;;;;;16.33;16.00;;;;;;;;5084779;27;44744;-78
2022/10/19 00:20:48;;;;;;;;;20.67;18.67;;;;;;;;5081288;28;45785;-78
2022/10/19 00:23:14;;;;;;;;;15.67;13.67;;;;;;;;5083339;28;45245;-78
2022/10/19 00:25:39;;;;;;;;;17.67;16.33;;;;;;;;5067689;28;46954;-78
2022/10/19 00:28:05;;;;;;;;;16.00;14.67;;;;;;;;5071118;27;45796;-77
2022/10/19 00:30:35;;;;;;;;;14.00;13.67;;;;;;;;5083804;27;45622;-76
2022/10/19 00:33:00;;;;;;;;;17.33;14.00;;;;;;;;5076794;27;45931;-80
2022/10/19 00:35:26;;;;;;;;;14.00;11.33;;;;;;;;5084171;27;45765;-81
2022/10/19 00:37:51;;;;;;;;;12.00;10.33;;;;;;;;5066721;28;45348;-81
2022/10/19 00:40:16;;;;;;;;;12.33;11.33;;;;;;;;5083674;28;45114;-80
2022/10/19 00:42:42;;;;;;;;;11.67;9.67;;;;;;;;5101303;27;45398;-83
2022/10/19 00:45:14;;;;;;;;;10.67;10.67;;;;;;;;5095080;27;45262;-82
2022/10/19 00:47:40;;;;;;;;;10.67;10.67;;;;;;;;5069635;28;45502;-81
2022/10/19 00:50:07;;;;;;;;;11.67;9.00;;;;;;;;5069611;28;45485;-82
2022/10/19 00:52:35;;;;;;;;;12.00;9.33;;;;;;;;5066562;28;46975;-81
2022/10/19 00:55:04;;;;;;;;;7.33;7.33;;;;;;;;5088256;28;45824;-81
2022/10/19 00:57:30;;;;;;;;;8.33;8.00;;;;;;;;5068108;28;44763;-81
2022/10/19 00:59:57;;;;;;;;;8.67;8.67;;;;;;;;5086130;28;45470;-81
2022/10/19 01:02:24;;;;;;;;;7.33;7.00;;;;;;;;5064145;28;46598;-81
2022/10/19 01:04:50;;;;;;;;;10.00;9.00;;;;;;;;5059308;28;47165;-79
2022/10/19 01:07:18;;;;;;;;;8.00;7.67;;;;;;;;5066387;27;45471;-80
2022/10/19 01:09:44;;;;;;;;;9.00;8.33;;;;;;;;5077394;28;45727;-82
2022/10/19 01:12:25;;;;;;;;;11.67;9.67;;;;;;;;5066058;28;45589;-80
2022/10/19 01:15:01;;;;;;;;;9.67;9.67;;;;;;;;5057500;28;47175;-80
2022/10/19 01:17:28;;;;;;;;;10.33;8.00;;;;;;;;5073790;28;45218;-81
2022/10/19 01:20:19;;;;;;;;;7.33;7.00;;;;;;;;5067294;27;45533;-79
2022/10/19 01:23:14;;;;;;;;;5.67;5.67;;;;;;;;5064536;28;46297;-80
2022/10/19 01:25:42;;;;;;;;;11.67;10.67;;;;;;;;5014773;28;45469;-80
2022/10/19 01:28:21;;;;;;;;;12.00;10.00;;;;;;;;5079745;28;45489;-82
2022/10/19 01:30:52;;;;;;;;;8.33;8.33;;;;;;;;5088107;27;45483;-82
2022/10/19 01:33:36;;;;;;;;;7.00;6.67;;;;;;;;5077384;28;45513;-82
2022/10/19 01:36:08;;;;;;;;;8.67;8.67;;;;;;;;5080521;27;45568;-78
2022/10/19 01:38:36;;;;;;;;;8.67;8.00;;;;;;;;5063812;28;45820;-83
2022/10/19 01:41:05;;;;;;;;;8.00;7.33;;;;;;;;5088979;27;45780;-81
2022/10/19 01:43:46;;;;;;;;;11.00;9.00;;;;;;;;5073468;27;45400;-82
2022/10/19 01:46:13;;;;;;;;;15.67;9.67;;;;;;;;5068799;28;45347;-81
2022/10/19 01:48:40;;;;;;;;;11.00;9.00;;;;;;;;5064272;28;45761;-82
2022/10/19 01:51:09;;;;;;;;;9.67;9.67;;;;;;;;5073209;27;44795;-81
2022/10/19 01:53:39;;;;;;;;;9.67;8.67;;;;;;;;5069133;28;46211;-80
2022/10/19 01:56:05;;;;;;;;;14.33;10.67;;;;;;;;5072871;28;47019;-80
2022/10/19 01:58:33;;;;;;;;;9.33;9.33;;;;;;;;5067485;27;45874;-81
2022/10/19 02:01:02;;;;;;;;;10.00;9.67;;;;;;;;5049896;28;45375;-81
2022/10/19 02:03:28;;;;;;;;;11.67;9.67;;;;;;;;5063374;28;45567;-82
2022/10/19 02:05:54;;;;;;;;;9.33;9.33;;;;;;;;5058729;28;46201;-81
2022/10/19 02:08:23;;;;;;;;;10.00;9.67;;;;;;;;5082595;28;45339;-81
2022/10/19 02:10:50;;;;;;;;;11.67;10.67;;;;;;;;5072509;27;45342;-82
2022/10/19 02:13:17;;;;;;;;;7.67;7.00;;;;;;;;5082167;28;45692;-81
2022/10/19 02:15:45;;;;;;;;;9.00;7.33;;;;;;;;5064511;27;47693;-80
2022/10/19 02:18:12;;;;;;;;;11.67;8.33;;;;;;;;5081026;28;45492;-80
2022/10/19 02:20:38;;;;;;;;;12.67;11.00;;;;;;;;5062178;28;45655;-81
2022/10/19 02:23:04;;;;;;;;;8.67;7.67;;;;;;;;5063005;28;45864;-81
2022/10/19 02:25:32;;;;;;;;;12.33;8.67;;;;;;;;5068473;28;46384;-82
2022/10/19 02:27:58;;;;;;;;;11.00;9.67;;;;;;;;5086902;28;44760;-81
2022/10/19 02:30:24;;;;;;;;;9.33;8.33;;;;;;;;5071679;28;45522;-76
2022/10/19 02:32:50;;;;;;;;;10.67;9.33;;;;;;;;5083133;27;45912;-77
2022/10/19 02:35:15;;;;;;;;;8.67;8.67;;;;;;;;5082175;27;46217;-77
2022/10/19 02:37:41;;;;;;;;;11.67;9.00;;;;;;;;5071619;27;45478;-76
2022/10/19 02:40:07;;;;;;;;;9.33;9.33;;;;;;;;5083441;27;45698;-77
2022/10/19 02:42:34;;;;;;;;;9.00;9.00;;;;;;;;5082259;27;45544;-77
2022/10/19 02:45:18;;;;;;;;;10.33;9.33;;;;;;;;5086215;27;45678;-77
2022/10/19 02:47:53;;;;;;;;;8.67;7.67;;;;;;;;5083050;28;45362;-79
2022/10/19 02:50:20;;;;;;;;;14.67;14.67;;;;;;;;5053770;28;44951;-76
2022/10/19 02:52:45;;;;;;;;;13.67;8.67;;;;;;;;5062606;28;45839;-78
2022/10/19 02:55:11;;;;;;;;;11.33;11.00;;;;;;;;5083442;28;46563;-77
2022/10/19 02:57:37;;;;;;;;;13.67;10.00;;;;;;;;5076792;27;45437;-75
2022/10/19 03:00:04;;;;;;;;;9.00;9.00;;;;;;;;5063288;28;45604;-77
2022/10/19 03:02:32;;;;;;;;;11.33;10.67;;;;;;;;5061026;27;45538;-78
2022/10/19 03:04:58;;;;;;;;;10.67;10.67;;;;;;;;5076749;28;46560;-79
2022/10/19 03:07:24;;;;;;;;;10.33;8.00;;;;;;;;5085348;27;45513;-78
2022/10/19 03:09:49;;;;;;;;;10.67;9.67;;;;;;;;5065135;28;45273;-79
2022/10/19 03:12:15;;;;;;;;;11.00;9.33;;;;;;;;5068192;28;45739;-79
2022/10/19 03:14:40;;;;;;;;;7.67;7.67;;;;;;;;5075967;28;46458;-77
2022/10/19 03:17:06;;;;;;;;;4.67;4.00;;;;;;;;5077427;27;45418;-76
2022/10/19 03:19:31;;;;;;;;;8.67;7.67;;;;;;;;5065266;28;46039;-75
2022/10/19 03:21:57;;;;;;;;;10.33;7.00;;;;;;;;5089008;27;45769;-76
2022/10/19 03:24:26;;;;;;;;;11.00;7.33;;;;;;;;5048038;28;45561;-77
2022/10/19 03:26:51;;;;;;;;;10.33;9.00;;;;;;;;5065538;28;45896;-79
2022/10/19 03:29:16;;;;;;;;;8.33;8.00;;;;;;;;5065001;28;46176;-77
2022/10/19 03:31:42;;;;;;;;;16.33;10.67;;;;;;;;5086720;27;45623;-78
2022/10/19 03:34:07;;;;;;;;;6.33;5.67;;;;;;;;5072896;27;45422;-78
2022/10/19 03:36:34;;;;;;;;;9.67;7.67;;;;;;;;5087445;27;45298;-77
2022/10/19 03:39:03;;;;;;;;;7.33;5.67;;;;;;;;5090044;27;45416;-78
2022/10/19 03:41:29;;;;;;;;;9.00;6.00;;;;;;;;5068772;28;45517;-77
2022/10/19 03:43:55;;;;;;;;;7.00;7.00;;;;;;;;5082066;28;46535;-78
2022/10/19 03:46:20;;;;;;;;;6.00;6.00;;;;;;;;5088158;27;45422;-76
2022/10/19 03:48:46;;;;;;;;;8.33;8.33;;;;;;;;5063302;28;45509;-76
2022/10/19 03:51:13;;;;;;;;;8.00;7.33;;;;;;;;5080877;27;45600;-78
2022/10/19 03:53:39;;;;;;;;;9.67;6.33;;;;;;;;5094327;27;45501;-81
2022/10/19 03:56:14;;;;;;;;;8.33;7.00;;;;;;;;5069839;28;45273;-80
2022/10/19 03:58:41;;;;;;;;;11.00;5.33;;;;;;;;5062988;28;45333;-81
2022/10/19 04:01:08;;;;;;;;;8.67;8.67;;;;;;;;5097738;27;45359;-81
2022/10/19 04:03:34;;;;;;;;;8.33;8.00;;;;;;;;5075916;27;45782;-81
2022/10/19 04:06:10;;;;;;;;;13.00;10.00;;;;;;;;5046107;28;45731;-81
2022/10/19 04:08:36;;;;;;;;;9.33;9.00;;;;;;;;5062279;27;45411;-82
2022/10/19 04:11:05;;;;;;;;;10.00;6.00;;;;;;;;5072383;27;45507;-82
2022/10/19 04:13:31;;;;;;;;;9.33;9.33;;;;;;;;5065283;27;47293;-83
2022/10/19 04:15:56;;;;;;;;;12.00;8.33;;;;;;;;5072572;27;45405;-82
2022/10/19 04:18:22;;;;;;;;;11.67;8.67;;;;;;;;5087812;27;45626;-82
2022/10/19 04:20:47;;;;;;;;;11.00;10.67;;;;;;;;5083867;27;45500;-82
2022/10/19 04:23:13;;;;;;;;;13.33;9.67;;;;;;;;5080201;28;45961;-82
2022/10/19 04:25:38;;;;;;;;;16.00;12.00;;;;;;;;5065619;28;46424;-82
2022/10/19 04:28:04;;;;;;;;;10.33;9.00;;;;;;;;5082303;27;45387;-84
2022/10/19 04:30:29;;;;;;;;;13.00;10.00;;;;;;;;5081812;28;45497;-83
2022/10/19 04:32:55;;;;;;;;;13.00;13.00;;;;;;;;5054317;27;46474;-81
2022/10/19 04:35:21;;;;;;;;;11.33;11.33;;;;;;;;5059485;28;45155;-81
2022/10/19 04:37:48;;;;;;;;;7.33;5.67;;;;;;;;5063881;28;45648;-83
2022/10/19 04:40:14;;;;;;;;;13.33;12.67;;;;;;;;5057530;28;45324;-82
2022/10/19 04:42:39;;;;;;;;;17.33;10.00;;;;;;;;5063534;28;46398;-82
2022/10/19 04:45:05;;;;;;;;;18.00;16.67;;;;;;;;5068617;28;44740;-84
2022/10/19 04:47:33;;;;;;;;;17.00;12.00;;;;;;;;5062784;28;45977;-82
2022/10/19 04:50:00;;;;;;;;;17.33;14.67;;;;;;;;5062173;28;45433;-84
2022/10/19 04:52:25;;;;;;;;;20.00;16.33;;;;;;;;5045402;28;47022;-83
2022/10/19 04:54:51;;;;;;;;;11.00;9.67;;;;;;;;5075609;28;45686;-82
2022/10/19 04:57:17;;;;;;;;;15.00;14.00;;;;;;;;5053944;28;45470;-83
2022/10/19 05:00:02;;;;;;;;;13.67;12.00;;;;;;;;5062798;28;44818;-81
2022/10/19 05:02:28;;;;;;;;;13.33;9.33;;;;;;;;5056533;28;46472;-81
2022/10/19 05:04:54;;;;;;;;;13.00;12.33;;;;;;;;5068500;28;45461;-83
2022/10/19 05:07:19;;;;;;;;;13.67;13.00;;;;;;;;5069315;28;45399;-83
2022/10/19 05:09:45;;;;;;;;;15.67;11.00;;;;;;;;5042179;28;46101;-84
2022/10/19 05:12:10;;;;;;;;;14.00;14.00;;;;;;;;5036391;28;46563;-82
2022/10/19 05:14:44;;;;;;;;;15.00;12.00;;;;;;;;5073765;28;45323;-84
2022/10/19 05:17:13;;;;;;;;;20.00;19.33;;;;;;;;5047364;28;45463;-82
2022/10/19 05:19:39;;;;;;;;;16.00;15.33;;;;;;;;5048335;28;44849;-82
2022/10/19 05:22:05;;;;;;;;;29.00;22.00;;;;;;;;5046042;28;47011;-83
2022/10/19 05:24:31;;;;;;;;;22.33;22.00;;;;;;;;5044695;28;45465;-81
2022/10/19 05:27:05;;;;;;;;;17.33;17.33;;;;;;;;5043310;28;45472;-84
2022/10/19 05:29:32;;;;;;;;;23.00;21.00;;;;;;;;5052506;28;45622;-81
2022/10/19 05:31:58;;;;;;;;;27.00;22.67;;;;;;;;5059004;28;45570;-82
2022/10/19 05:34:32;;;;;;;;;22.67;18.33;;;;;;;;5045955;28;45842;-78
2022/10/19 05:37:08;;;;;;;;;28.33;21.67;;;;;;;;5078993;28;44838;-85
2022/10/19 05:39:33;;;;;;;;;16.33;14.00;;;;;;;;5077440;28;45657;-82
2022/10/19 05:41:58;;;;;;;;;19.67;18.33;;;;;;;;5060738;28;45740;-81
2022/10/19 05:44:24;;;;;;;;;17.33;13.67;;;;;;;;5080713;28;45803;-83
2022/10/19 05:46:50;;;;;;;;;19.33;18.67;;;;;;;;5078862;27;45748;-84
2022/10/19 05:49:17;;;;;;;;;16.33;10.33;;;;;;;;5090357;27;45679;-83
2022/10/19 05:51:43;;;;;;;;;19.00;16.67;;;;;;;;5093440;27;45779;-82
2022/10/19 05:54:09;;;;;;;;;21.33;18.00;;;;;;;;5066142;28;45449;-82
2022/10/19 05:56:41;;;;;;;;;18.67;16.00;;;;;;;;5058170;28;45685;-79
2022/10/19 05:59:12;;;;;;;;;24.67;18.67;;;;;;;;5077933;27;45187;-80
2022/10/19 06:01:38;;;;;;;;;14.00;13.33;;;;;;;;5077416;27;45681;-78
2022/10/19 06:04:04;;;;;;;;;16.00;15.33;;;;;;;;5078381;27;45409;-83
2022/10/19 06:06:30;;;;;;;;;19.33;15.33;;;;;;;;5076228;28;45340;-83
2022/10/19 06:09:44;;;;;;;;;;;;;;;;;;;;;
2022/10/19 06:15:23;;;;;;;;;14.00;14.00;;;;;;;;5007774;28;45319;-92
2022/10/19 06:18:14;;;;;;;;;14.33;14.33;;;;;;;;5012301;28;45487;-88
2022/10/19 06:20:49;;;;;;;;;15.00;12.33;;;;;;;;5025643;28;47046;-90
2022/10/19 06:23:18;;;;;;;;;14.33;13.67;;;;;;;;5047168;28;46819;-88
2022/10/19 06:25:43;;;;;;;;;14.00;11.33;;;;;;;;5073999;28;45429;-87
2022/10/19 06:28:10;;;;;;;;;16.33;14.33;;;;;;;;5079585;28;45414;-87
2022/10/19 06:30:45;;;;;;;;;14.33;14.33;;;;;;;;5087902;27;44815;-86
2022/10/19 06:33:36;;;;;;;;;12.00;12.00;;;;;;;;5068671;28;47666;-88
2022/10/19 06:36:09;;;;;;;;;18.00;13.33;;;;;;;;5083989;27;45852;-82
2022/10/19 06:39:03;;;;;;;;;14.00;12.67;;;;;;;;5077109;28;45382;-80
2022/10/19 06:41:44;;;;;;;;;19.33;16.67;;;;;;;;5049416;28;45450;-83
2022/10/19 06:44:09;;;;;;;;;14.33;11.67;;;;;;;;5068905;28;46369;-77
2022/10/19 07:01:07;;;;;;;;;19.33;16.00;;;;;;;;5094087;22;45947;-71
2022/10/19 07:03:33;;;;;;;;;16.33;14.33;;;;;;;;5080678;27;46604;-69
2022/10/19 07:05:59;;;;;;;;;15.67;15.33;;;;;;;;5101344;27;45883;-70
2022/10/19 07:08:25;;;;;;;;;14.00;11.67;;;;;;;;5094857;27;47204;-68
2022/10/19 07:10:51;;;;;;;;;12.67;12.33;;;;;;;;5098968;27;45713;-70
2022/10/19 07:13:17;;;;;;;;;14.00;13.00;;;;;;;;5093956;27;46012;-69
2022/10/19 07:15:42;;;;;;;;;13.67;12.00;;;;;;;;5074607;27;47286;-71
2022/10/19 07:18:07;;;;;;;;;14.67;14.67;;;;;;;;5089653;27;45484;-67
2022/10/19 07:20:32;;;;;;;;;15.67;14.33;;;;;;;;5097932;27;45484;-69
2022/10/19 07:22:58;;;;;;;;;19.67;15.33;;;;;;;;5093023;27;45280;-69
2022/10/19 07:25:23;;;;;;;;;10.67;10.67;;;;;;;;5096158;27;46330;-69
2022/10/19 07:27:49;;;;;;;;;18.67;15.00;;;;;;;;5091724;27;45582;-70
2022/10/19 07:30:14;;;;;;;;;11.67;10.33;;;;;;;;5084987;27;45789;-69
2022/10/19 07:32:39;;;;;;;;;17.00;12.00;;;;;;;;5095620;27;45754;-69
2022/10/19 07:35:05;;;;;;;;;16.00;12.67;;;;;;;;5095292;27;46075;-69
2022/10/19 07:37:30;;;;;;;;;12.33;12.00;;;;;;;;5101916;27;45764;-71
2022/10/19 07:39:55;;;;;;;;;16.00;13.00;;;;;;;;5094628;27;45389;-68
2022/10/19 07:42:21;;;;;;;;;20.33;16.00;;;;;;;;5085034;27;46570;-69
2022/10/19 07:44:46;;;;;;;;;14.67;10.67;;;;;;;;5097580;27;45701;-68
2022/10/19 07:47:12;;;;;;;;;16.00;13.00;;;;;;;;5097618;27;45642;-68
2022/10/19 07:49:37;;;;;;;;;11.00;7.67;;;;;;;;5067955;27;45390;-69
2022/10/19 07:52:02;;;;;;;;;16.67;13.33;;;;;;;;5099764;27;45439;-70
2022/10/19 07:54:28;;;;;;;;;14.00;12.67;;;;;;;;5088266;27;46458;-69
2022/10/19 07:56:53;;;;;;;;;10.67;10.67;;;;;;;;5097564;27;45423;-69
2022/10/19 07:59:19;;;;;;;;;20.33;15.00;;;;;;;;5094140;27;45336;-70
2022/10/19 08:01:46;;;;;;;;;15.33;13.33;;;;;;;;5083374;27;46534;-69
2022/10/19 08:04:11;;;;;;;;;18.00;16.33;;;;;;;;5100108;27;45765;-69
2022/10/19 08:06:37;;;;;;;;;17.33;14.00;;;;;;;;5084024;27;45734;-69
2022/10/19 08:09:03;;;;;;;;;16.33;16.00;;;;;;;;5107598;27;45676;-69
2022/10/19 08:11:33;;;;;;;;;13.67;12.67;;;;;;;;5095088;27;45585;-69
2022/10/19 08:14:02;;;;;;;;;16.33;12.67;;;;;;;;5090247;27;45466;-68
2022/10/19 08:16:33;;;;;;;;;13.33;13.00;;;;;;;;5093034;27;45762;-69
2022/10/19 08:19:00;;;;;;;;;18.33;12.67;;;;;;;;5103266;27;45658;-69
2022/10/19 08:21:25;;;;;;;;;24.33;19.67;;;;;;;;5092699;27;45893;-69
2022/10/19 08:23:51;;;;;;;;;19.67;15.67;;;;;;;;5091024;27;46983;-70
2022/10/19 08:26:16;;;;;;;;;13.67;13.67;;;;;;;;5092906;27;45622;-69
2022/10/19 08:28:41;;;;;;;;;16.67;15.00;;;;;;;;5095148;27;46095;-73
2022/10/19 08:31:10;;;;;;;;;13.00;13.00;;;;;;;;5089774;27;45908;-70
2022/10/19 08:33:35;;;;;;;;;18.67;15.67;;;;;;;;5094744;27;46412;-70
2022/10/19 08:36:03;;;;;;;;;15.00;15.00;;;;;;;;5087352;27;45691;-69
2022/10/19 08:38:28;;;;;;;;;20.00;17.67;;;;;;;;5085540;27;46005;-69
2022/10/19 08:40:54;;;;;;;;;19.33;15.00;;;;;;;;5097631;27;46095;-71
2022/10/19 08:43:33;;;;;;;;;17.67;14.67;;;;;;;;5091800;27;46571;-70
2022/10/19 08:46:22;;;;;;;;;22.00;15.67;;;;;;;;5079680;27;45731;-68
2022/10/19 08:48:47;;;;;;;;;15.75;14.75;;;;;;;;5072572;27;45782;-69
2022/10/19 08:51:12;;;;;;;;;14.33;14.00;;;;;;;;5089393;27;45726;-69
2022/10/19 08:53:56;;;;;;;;;18.00;15.33;;;;;;;;5080363;27;46613;-72
2022/10/19 08:56:21;;;;;;;;;14.00;11.33;;;;;;;;5072789;27;45559;-71
2022/10/19 08:58:53;;;;;;;;;17.33;15.00;;;;;;;;5084137;27;45673;-65
2022/10/19 09:01:24;;;;;;;;;10.75;9.50;;;;;;;;5084137;27;46056;-66
2022/10/19 09:03:53;;;;;;;;;15.33;13.33;;;;;;;;5074715;27;45753;-65
2022/10/19 09:06:23;;;;;;;;;13.25;10.75;;;;;;;;5081668;27;45550;-64
2022/10/19 09:08:52;;;;;;;;;14.00;14.00;;;;;;;;5077632;27;45657;-66
2022/10/19 09:11:22;;;;;;;;;13.00;13.00;;;;;;;;5081985;27;45412;-66
2022/10/19 09:13:48;;;;;;;;;17.25;12.75;;;;;;;;5088803;27;45788;-65
2022/10/19 09:16:16;;;;;;;;;13.25;13.25;;;;;;;;5082770;27;45655;-66
2022/10/19 09:18:45;;;;;;;;;12.00;11.00;;;;;;;;5096775;27;45511;-66
2022/10/19 09:21:18;;;;;;;;;12.00;10.25;;;;;;;;5081004;27;46685;-66
2022/10/19 09:23:54;;;;;;;;;14.25;13.25;;;;;;;;5087608;27;46188;-66
2022/10/19 09:26:20;;;;;;;;;12.50;10.75;;;;;;;;5105385;27;45652;-68
2022/10/19 09:28:58;;;;;;;;;15.25;14.00;;;;;;;;5102315;27;45543;-66
2022/10/19 09:31:23;;;;;;;;;12.25;12.25;;;;;;;;5091502;27;45845;-66
2022/10/19 09:33:52;;;;;;;;;13.75;12.25;;;;;;;;5085403;27;45652;-68
2022/10/19 09:36:17;;;;;;;;;13.75;12.50;;;;;;;;5078788;27;45950;-67
2022/10/19 09:38:42;;;;;;;;;11.50;11.50;;;;;;;;5091705;27;45423;-66
2022/10/19 09:41:14;;;;;;;;;13.00;11.75;;;;;;;;5106038;27;45903;-67
2022/10/19 09:43:42;;;;;;;;;11.50;10.50;;;;;;;;5076798;27;47213;-65
2022/10/19 09:46:17;;;;;;;;;13.00;12.00;;;;;;;;5096937;27;45761;-67
2022/10/19 09:48:49;;;;;;;;;8.00;5.25;;;;;;;;5081926;27;45546;-67
2022/10/19 09:51:15;;;;;;;;;12.25;11.25;;;;;;;;5100811;27;45817;-67
2022/10/19 09:53:49;;;;;;;;;11.00;11.00;;;;;;;;5076854;27;46452;-67
2022/10/19 09:56:19;;;;;;;;;8.75;8.75;;;;;;;;5053424;27;45690;-68
2022/10/19 09:58:48;;;;;;;;;8.25;8.25;;;;;;;;5097261;27;46276;-66
2022/10/19 10:01:35;;;;;;;;;8.50;8.25;;;;;;;;5082916;27;45737;-67
2022/10/19 10:04:08;;;;;;;;;9.00;7.75;;;;;;;;5094104;27;45643;-68
2022/10/19 10:06:34;;;;;;;;;10.50;10.00;;;;;;;;5077264;27;46580;-68
2022/10/19 10:09:00;;;;;;;;;8.00;8.00;;;;;;;;5076945;27;45902;-66
2022/10/19 10:11:36;;;;;;;;;10.75;9.00;;;;;;;;5084842;27;45854;-68
2022/10/19 10:14:16;;;;;;;;;11.00;9.00;;;;;;;;5073517;27;45969;-66
2022/10/19 10:16:41;;;;;;;;;9.25;9.25;;;;;;;;5083548;27;45395;-68
2022/10/19 10:19:07;;;;;;;;;13.50;10.75;;;;;;;;5090585;27;45696;-68
2022/10/19 10:21:47;;;;;;;;;11.50;11.25;;;;;;;;5084093;27;45399;-65
2022/10/19 10:24:12;;;;;;;;;12.00;9.75;;;;;;;;5063583;27;47259;-66
2022/10/19 10:26:48;;;;;;;;;12.25;11.00;;;;;;;;5074941;27;45362;-66
2022/10/19 10:29:18;;;;;;;;;9.25;9.25;;;;;;;;5082847;27;45444;-66
2022/10/19 10:31:45;;;;;;;;;8.25;8.25;;;;;;;;5083942;27;45460;-66
2022/10/19 10:34:13;;;;;;;;;8.25;8.25;;;;;;;;5092251;27;45447;-64
2022/10/19 10:36:38;;;;;;;;;11.25;10.50;;;;;;;;5086584;27;45303;-65
2022/10/19 10:39:05;;;;;;;;;12.00;11.00;;;;;;;;5081675;27;45385;-65
2022/10/19 10:41:35;;;;;;;;;11.00;10.75;;;;;;;;5086664;27;45458;-66
2022/10/19 10:44:02;;;;;;;;;11.00;10.25;;;;;;;;5099544;27;46710;-68
2022/10/19 10:46:32;;;;;;;;;8.00;8.00;;;;;;;;5075437;27;46043;-67
2022/10/19 10:49:00;;;;;;;;;13.50;12.50;;;;;;;;5091895;27;45383;-67
2022/10/19 10:51:25;;;;;;;;;8.25;8.25;;;;;;;;5058861;27;47108;-68
2022/10/19 10:54:05;;;;;;;;;9.75;7.50;;;;;;;;5089261;27;46254;-66
2022/10/19 10:56:32;;;;;;;;;12.75;10.75;;;;;;;;5077941;27;45436;-65
2022/10/19 10:58:58;;;;;;;;;11.75;11.00;;;;;;;;5094268;27;45826;-66
2022/10/19 11:01:26;;;;;;;;;9.75;9.75;;;;;;;;5086123;27;45794;-66
2022/10/19 11:03:56;;;;;;;;;9.75;9.00;;;;;;;;5087888;27;46783;-65
2022/10/19 11:06:23;;;;;;;;;13.75;9.00;;;;;;;;5090674;27;45712;-67
2022/10/19 11:08:55;;;;;;;;;12.50;10.25;;;;;;;;5096034;27;45886;-67
2022/10/19 11:11:29;;;;;;;;;9.75;9.50;;;;;;;;5091114;27;45299;-67
2022/10/19 11:13:54;;;;;;;;;12.50;10.00;;;;;;;;5071443;27;47361;-66
2022/10/19 11:16:39;;;;;;;;;7.75;7.75;;;;;;;;5097905;27;45483;-66
2022/10/19 11:19:11;;;;;;;;;8.00;7.50;;;;;;;;5089415;27;45703;-65
2022/10/19 11:21:39;;;;;;;;;12.25;9.50;;;;;;;;5096620;27;45358;-65
2022/10/19 11:24:04;;;;;;;;;10.00;9.25;;;;;;;;5096481;27;45774;-68
2022/10/19 11:26:45;;;;;;;;;11.50;11.50;;;;;;;;5076860;27;45673;-65
2022/10/19 11:29:10;;;;;;;;;8.50;8.50;;;;;;;;5082736;27;45475;-66
2022/10/19 11:31:44;;;;;;;;;8.00;7.25;;;;;;;;5097301;27;45485;-66
2022/10/19 11:34:12;;;;;;;;;12.75;11.50;;;;;;;;5092633;27;46223;-67
2022/10/19 11:36:47;;;;;;;;;11.50;8.25;;;;;;;;5095771;27;45414;-64
2022/10/19 11:39:27;;;;;;;;;10.50;10.50;;;;;;;;5085448;27;45358;-66
2022/10/19 11:42:11;;;;;;;;;9.75;7.75;;;;;;;;5089163;27;45824;-64
2022/10/19 11:44:50;;;;;;;;;10.25;9.25;;;;;;;;5098983;27;45365;-65
2022/10/19 11:47:15;;;;;;;;;14.00;10.00;;;;;;;;5095144;27;45433;-65
2022/10/19 11:50:09;;;;;;;;;16.50;11.00;;;;;;;;5095992;27;46308;-66
2022/10/19 11:52:34;;;;;;;;;10.00;9.25;;;;;;;;5098356;27;45896;-66
2022/10/19 11:55:35;;;;;;;;;9.75;7.50;;;;;;;;5104541;27;45839;-66
2022/10/19 11:58:12;;;;;;;;;10.00;10.00;;;;;;;;4997716;28;45447;-64
2022/10/19 12:00:45;;;;;;;;;12.75;10.75;;;;;;;;5090606;27;45462;-63
2022/10/19 12:03:16;;;;;;;;;15.67;13.33;;;;;;;;5097797;27;45418;-63
2022/10/19 12:06:00;;;;;;;;;9.50;9.25;;;;;;;;5083083;27;47580;-65
2022/10/19 12:08:44;;;;;;;;;7.25;7.25;;;;;;;;5086716;27;45431;-65
2022/10/19 12:11:10;;;;;;;;;13.50;11.50;;;;;;;;5098208;27;45703;-63
2022/10/19 12:13:46;;;;;;;;;12.25;10.25;;;;;;;;5102469;27;45501;-65
2022/10/19 12:16:12;;;;;;;;;10.00;10.00;;;;;;;;5088815;27;48002;-64
2022/10/19 12:18:41;;;;;;;;;15.00;13.00;;;;;;;;5106265;27;45742;-64
2022/10/19 12:21:23;;;;;;;;;9.00;9.00;;;;;;;;5098509;27;45701;-64
2022/10/19 12:23:49;;;;;;;;;15.25;13.25;;;;;;;;5103567;27;45772;-64
2022/10/19 12:26:15;;;;;;;;;11.50;10.50;;;;;;;;5089921;27;45770;-65
2022/10/19 12:28:45;;;;;;;;;10.75;9.75;;;;;;;;5073717;27;45777;-64
2022/10/19 12:31:11;;;;;;;;;10.00;9.00;;;;;;;;5074026;27;45716;-63
2022/10/19 12:33:46;;;;;;;;;15.00;12.00;;;;;;;;5082961;27;45638;-65
2022/10/19 12:36:34;;;;;;;;;13.25;11.00;;;;;;;;5055837;28;47912;-65
2022/10/19 12:39:10;;;;;;;;;13.00;10.75;;;;;;;;5087929;27;45416;-66
2022/10/19 12:41:43;;;;;;;;;12.25;11.00;;;;;;;;5081455;27;45554;-64
2022/10/19 12:44:36;;;;;;;;;11.75;11.25;;;;;;;;5084029;27;45465;-64
2022/10/19 12:47:08;;;;;;;;;12.25;9.50;;;;;;;;5078165;27;48341;-65
2022/10/19 12:49:42;;;;;;;;;17.75;10.75;;;;;;;;5090230;27;45790;-66
2022/10/19 12:52:08;;;;;;;;;7.00;5.25;;;;;;;;5080659;27;45883;-65
2022/10/19 12:54:35;;;;;;;;;12.00;9.50;;;;;;;;5096871;27;45906;-64
2022/10/19 12:57:02;;;;;;;;;14.33;13.67;;;;;;;;5092287;27;45728;-64
2022/10/19 12:59:31;;;;;;;;;14.00;12.25;;;;;;;;5104598;27;45673;-65
2022/10/19 13:01:58;;;;;;;;;10.75;9.25;;;;;;;;5099630;27;45772;-64
2022/10/19 13:04:28;;;;;;;;;12.75;12.50;;;;;;;;5094463;27;45739;-67
2022/10/19 13:06:56;;;;;;;;;13.25;11.50;;;;;;;;5099417;27;46111;-64
2022/10/19 13:09:35;;;;;;;;;11.25;10.25;;;;;;;;5094056;27;45809;-65
2022/10/19 13:12:12;;;;;;;;;8.25;8.25;;;;;;;;5108559;27;45509;-64
2022/10/19 13:14:56;;;;;;;;;13.50;11.50;;;;;;;;5100678;27;46415;-64
2022/10/19 13:17:36;;;;;;;;;12.75;10.50;;;;;;;;5091089;27;45983;-64
2022/10/19 13:20:28;;;;;;;;;10.50;8.75;;;;;;;;5101954;27;45622;-64
2022/10/19 13:22:59;;;;;;;;;12.00;11.00;;;;;;;;5063195;27;45422;-65
2022/10/19 13:25:26;;;;;;;;;11.00;11.00;;;;;;;;5099438;27;45493;-63
2022/10/19 13:28:25;;;;;;;;;11.50;11.50;;;;;;;;5065372;27;45874;-66
2022/10/19 13:30:50;;;;;;;;;11.00;10.75;;;;;;;;5081641;27;45540;-63
2022/10/19 13:33:28;;;;;;;;;11.00;10.50;;;;;;;;5094843;27;45542;-66
2022/10/19 13:36:03;;;;;;;;;5.25;4.50;;;;;;;;5084357;27;46317;-64
2022/10/19 13:38:32;;;;;;;;;12.75;11.75;;;;;;;;5086080;27;45332;-66
2022/10/19 13:41:00;;;;;;;;;11.00;11.00;;;;;;;;5071053;27;45440;-64
2022/10/19 13:43:30;;;;;;;;;8.50;8.50;;;;;;;;5090914;27;45845;-64
2022/10/19 13:46:15;;;;;;;;;11.25;10.75;;;;;;;;5067018;27;46159;-65
2022/10/19 13:48:59;;;;;;;;;11.75;10.00;;;;;;;;5092845;27;45912;-67
2022/10/19 13:51:36;;;;;;;;;6.50;6.50;;;;;;;;5097654;27;45695;-68
2022/10/19 13:54:04;;;;;;;;;15.50;11.25;;;;;;;;5090406;27;46609;-66
2022/10/19 13:56:36;;;;;;;;;12.50;10.50;;;;;;;;5091237;27;45724;-66
2022/10/19 13:59:07;;;;;;;;;10.75;9.50;;;;;;;;5093916;27;46108;-66
2022/10/19 14:01:33;;;;;;;;;14.00;10.75;;;;;;;;5091229;27;45811;-67
2022/10/19 14:04:09;;;;;;;;;9.75;9.75;;;;;;;;5094822;27;45676;-66
2022/10/19 14:06:53;;;;;;;;;11.75;9.75;;;;;;;;5084442;27;45611;-66
2022/10/19 14:09:37;;;;;;;;;10.75;9.00;;;;;;;;5091249;27;45738;-66
2022/10/19 14:12:14;;;;;;;;;8.00;7.00;;;;;;;;5096191;27;45819;-64
2022/10/19 14:14:41;;;;;;;;;9.50;9.50;;;;;;;;5090678;27;45795;-67
2022/10/19 14:17:13;;;;;;;;;11.75;9.00;;;;;;;;5104477;27;45572;-67
2022/10/19 14:19:46;;;;;;;;;15.25;12.00;;;;;;;;5103137;27;45471;-66
2022/10/19 14:22:32;;;;;;;;;8.00;7.00;;;;;;;;5095329;27;45577;-64
2022/10/19 14:25:01;;;;;;;;;12.75;10.25;;;;;;;;5064210;27;45860;-66
2022/10/19 14:27:26;;;;;;;;;10.50;8.75;;;;;;;;5091992;27;45941;-65
2022/10/19 14:29:52;;;;;;;;;11.00;8.25;;;;;;;;5091040;27;46784;-67
2022/10/19 14:32:20;;;;;;;;;10.00;9.00;;;;;;;;5090985;27;45358;-66
2022/10/19 14:34:46;;;;;;;;;9.25;9.25;;;;;;;;5073213;27;45381;-67
2022/10/19 14:37:15;;;;;;;;;8.50;7.50;;;;;;;;5090811;27;45682;-69
2022/10/19 14:39:40;;;;;;;;;8.75;7.50;;;;;;;;5092226;27;46196;-65
2022/10/19 14:42:08;;;;;;;;;7.50;7.50;;;;;;;;5091698;27;45844;-66
2022/10/19 14:44:37;;;;;;;;;8.75;8.75;;;;;;;;5091172;27;45472;-67
2022/10/19 14:47:18;;;;;;;;;10.50;9.50;;;;;;;;5100568;27;45761;-65
2022/10/19 14:49:43;;;;;;;;;10.00;8.75;;;;;;;;5078110;27;46029;-66
2022/10/19 14:52:09;;;;;;;;;10.00;10.00;;;;;;;;5100192;27;45753;-68
2022/10/19 14:54:39;;;;;;;;;11.00;9.50;;;;;;;;5108544;27;45791;-67
2022/10/19 14:57:11;;;;;;;;;10.00;9.50;;;;;;;;5093986;27;45870;-62
2022/10/19 14:59:44;;;;;;;;;11.25;10.25;;;;;;;;5084374;27;45348;-63